Time;durP1;ratioP1;P1;durP2;ratioP2;P2;SDS_P1;SDS_P2;PMS_P1;PMS_P2;Temp;Humidity;BMP_temperature;BMP_pressure;BME280_temperature;BME280_humidity;BME280_pressure;Samples;Min_cycle;Max_cycle;Signal;HPM_P1;HPM_P2
2024/02/26 00:02:16;;;;;;;13.00;5.50;;;;;;;-4.95;100.00;141075.78;106945;1264;25564;-67
2024/02/26 00:05:01;;;;;;;12.30;5.40;;;;;;;-4.99;100.00;141065.41;107139;1268;23166;-69
2024/02/26 00:07:47;;;;;;;13.70;5.80;;;;;;;-5.03;100.00;141057.22;106881;1267;23356;-68
2024/02/26 00:10:32;;;;;;;8.40;3.90;;;;;;;-5.07;100.00;141046.59;107120;1269;25319;-68
2024/02/26 00:13:18;;;;;;;12.70;5.20;;;;;;;-5.11;100.00;141037.42;106991;1254;25409;-68
2024/02/26 00:16:07;;;;;;;10.80;5.80;;;;;;;-5.14;100.00;141029.50;106827;1267;25360;-68
2024/02/26 00:18:52;;;;;;;13.50;5.30;;;;;;;-5.15;100.00;141027.05;106761;1254;25488;-69
2024/02/26 00:21:42;;;;;;;11.80;6.20;;;;;;;-5.16;100.00;141025.56;107271;1267;25407;-70
2024/02/26 00:24:27;;;;;;;15.60;5.60;;;;;;;-5.13;100.00;141031.25;106821;1253;25387;-71
2024/02/26 00:27:13;;;;;;;11.80;5.80;;;;;;;-5.13;100.00;141032.98;106910;1277;25478;-71
2024/02/26 00:29:59;;;;;;;10.80;5.20;;;;;;;-5.13;100.00;141031.98;106948;1267;25390;-68
2024/02/26 00:32:44;;;;;;;16.50;7.00;;;;;;;-5.15;100.00;141027.28;106967;1254;23277;-67
2024/02/26 00:35:30;;;;;;;13.10;5.70;;;;;;;-5.15;100.00;141026.05;106906;1267;25346;-69
2024/02/26 00:38:16;;;;;;;13.40;6.00;;;;;;;-5.16;100.00;141025.06;106722;1267;25433;-67
2024/02/26 00:41:01;;;;;;;13.30;6.00;;;;;;;-5.15;100.00;141026.80;106923;1267;25453;-69
2024/02/26 00:43:47;;;;;;;13.90;6.10;;;;;;;-5.16;100.00;141025.31;106810;1266;25451;-69
2024/02/26 00:46:33;;;;;;;13.40;6.30;;;;;;;-5.18;100.00;141021.09;107030;1266;25439;-67
2024/02/26 00:49:18;;;;;;;13.50;6.20;;;;;;;-5.21;100.00;141013.17;107029;1268;25346;-67
2024/02/26 00:52:05;;;;;;;12.40;6.00;;;;;;;-5.26;100.00;141000.83;106926;1268;23119;-67
2024/02/26 00:54:50;;;;;;;11.00;4.80;;;;;;;-5.31;100.00;140987.95;106768;1263;25491;-65
2024/02/26 00:57:36;;;;;;;14.10;6.30;;;;;;;-5.37;100.00;140973.11;106822;1269;25465;-67
2024/02/26 01:00:22;;;;;;;16.20;6.80;;;;;;;-5.41;100.00;140964.20;106745;1263;25453;-63
2024/02/26 01:03:09;;;;;;;15.90;6.90;;;;;;;-5.45;100.00;140954.80;106913;1262;24233;-70
2024/02/26 01:05:55;;;;;;;13.40;6.10;;;;;;;-5.49;100.00;140945.66;106844;1267;25495;-66
2024/02/26 01:08:44;;;;;;;14.20;5.90;;;;;;;-5.52;100.00;140939.22;106907;1257;25370;-67
2024/02/26 01:11:30;;;;;;;14.00;6.60;;;;;;;-5.53;100.00;140936.02;106707;1264;25350;-68
2024/02/26 01:14:16;;;;;;;11.50;5.90;;;;;;;-5.56;100.00;140929.33;106734;1267;25351;-69
2024/02/26 01:17:02;;;;;;;14.40;6.70;;;;;;;-5.57;100.00;140926.63;106705;1270;25395;-68
2024/02/26 01:19:48;;;;;;;12.00;6.70;;;;;;;-5.58;100.00;140923.66;106280;1270;25459;-67
2024/02/26 01:22:34;;;;;;;12.50;6.10;;;;;;;-5.57;100.00;140926.13;106554;1269;25383;-70
2024/02/26 01:25:20;;;;;;;13.50;6.30;;;;;;;-5.58;100.00;140923.16;106704;1264;25405;-70
2024/02/26 01:28:06;;;;;;;13.20;6.60;;;;;;;-5.59;100.00;140920.20;106767;1264;25366;-69
2024/02/26 01:30:51;;;;;;;13.80;7.40;;;;;;;-5.61;100.00;140916.72;106724;1262;25338;-66
2024/02/26 01:33:37;;;;;;;14.50;7.30;;;;;;;-5.61;100.00;140915.97;106761;1268;25419;-66
2024/02/26 01:36:22;;;;;;;14.10;7.00;;;;;;;-5.62;100.00;140913.28;106820;1270;25480;-69
2024/02/26 01:39:11;;;;;;;18.20;7.70;;;;;;;-5.64;100.00;140907.34;106674;1267;25456;-68
2024/02/26 01:41:59;;;;;;;13.30;6.90;;;;;;;-5.68;100.00;140899.66;106707;1267;25482;-66
2024/02/26 01:44:45;;;;;;;14.90;8.00;;;;;;;-5.71;100.00;140892.00;106694;1269;25400;-69
2024/02/26 01:47:32;;;;;;;14.60;7.40;;;;;;;-5.73;100.00;140885.83;106730;1269;24514;-65
2024/02/26 01:50:19;;;;;;;16.70;7.30;;;;;;;-5.74;100.00;140884.83;106750;1270;24369;-66
2024/02/26 01:53:07;;;;;;;16.20;8.30;;;;;;;-5.76;100.00;140878.64;106711;1267;25409;-69
2024/02/26 01:55:52;;;;;;;15.50;7.00;;;;;;;-5.77;100.00;140876.41;106685;1267;25388;-68
2024/02/26 01:58:38;;;;;;;18.60;8.50;;;;;;;-5.79;100.00;140872.47;106829;1268;25528;-68
2024/02/26 02:01:28;;;;;;;14.90;7.90;;;;;;;-5.79;100.00;140872.47;106886;1266;25410;-70
2024/02/26 02:04:15;;;;;;;13.60;7.40;;;;;;;-5.80;100.00;140869.50;106866;1265;25331;-69
2024/02/26 02:07:02;;;;;;;16.10;7.50;;;;;;;-5.82;100.00;140865.55;106882;1267;25400;-70
2024/02/26 02:09:48;;;;;;;18.20;7.40;;;;;;;-5.81;100.00;140866.53;106938;1266;25407;-68
2024/02/26 02:12:34;;;;;;;16.50;7.30;;;;;;;-5.82;100.00;140865.05;106889;1266;25398;-70
2024/02/26 02:15:20;;;;;;;17.80;8.00;;;;;;;-5.83;100.00;140863.31;106769;1267;25330;-69
2024/02/26 02:18:06;;;;;;;22.40;7.30;;;;;;;-5.84;100.00;140858.88;106757;1266;23911;-70
2024/02/26 02:20:53;;;;;;;14.40;7.50;;;;;;;-5.85;100.00;140855.91;106822;1267;26101;-70
2024/02/26 02:23:40;;;;;;;16.90;6.70;;;;;;;-5.84;100.00;140858.63;106756;1266;25565;-70
2024/02/26 02:26:26;;;;;;;14.70;8.40;;;;;;;-5.84;100.00;140859.61;106765;1269;25387;-67
2024/02/26 02:29:13;;;;;;;16.50;8.10;;;;;;;-5.84;100.00;140858.63;106720;1268;25383;-71
2024/02/26 02:32:01;;;;;;;21.10;9.00;;;;;;;-5.85;100.00;140857.13;106852;1264;25434;-68
2024/02/26 02:34:47;;;;;;;24.80;7.70;;;;;;;-5.86;100.00;140855.88;106831;1268;25418;-68
2024/02/26 02:37:33;;;;;;;14.70;7.20;;;;;;;-5.85;100.00;140856.14;106853;1267;25331;-70
2024/02/26 02:40:18;;;;;;;17.30;8.70;;;;;;;-5.86;100.00;140854.17;106859;1267;25436;-70
2024/02/26 02:43:06;;;;;;;13.20;7.50;;;;;;;-5.88;100.00;140850.70;106839;1266;25332;-70
2024/02/26 02:45:52;;;;;;;17.50;8.30;;;;;;;-5.90;100.00;140846.25;106864;1254;25349;-69
2024/02/26 02:48:38;;;;;;;19.60;8.60;;;;;;;-5.89;100.00;140849.47;106874;1264;25331;-69
2024/02/26 02:51:23;;;;;;;20.00;10.00;;;;;;;-5.87;100.00;140852.94;106872;1267;22522;-67
2024/02/26 02:54:09;;;;;;;21.10;9.40;;;;;;;-5.86;100.00;140854.16;106876;1270;25369;-69
2024/02/26 02:56:55;;;;;;;22.40;8.80;;;;;;;-5.86;100.00;140853.92;107008;1262;23173;-68
2024/02/26 02:59:42;;;;;;;23.00;9.70;;;;;;;-5.90;100.00;140846.75;106907;1266;25341;-68
2024/02/26 03:02:29;;;;;;;16.00;7.20;;;;;;;-5.89;100.00;140848.23;106717;1264;25427;-66
2024/02/26 03:05:14;;;;;;;18.50;8.40;;;;;;;-5.89;100.00;140849.47;106722;1268;23741;-68
2024/02/26 03:08:00;;;;;;;18.50;7.80;;;;;;;-5.89;100.00;140849.47;106732;1266;25356;-66
2024/02/26 03:10:46;;;;;;;19.60;8.70;;;;;;;-5.91;100.00;140843.53;106700;1268;25404;-69
2024/02/26 03:13:32;;;;;;;15.10;7.80;;;;;;;-5.92;100.00;140840.83;106714;1267;25408;-70
2024/02/26 03:16:18;;;;;;;14.10;7.80;;;;;;;-5.95;100.00;140834.94;106721;1268;25341;-68
2024/02/26 03:19:04;;;;;;;17.10;9.00;;;;;;;-5.96;100.00;140832.22;106712;1266;25393;-69
2024/02/26 03:21:50;;;;;;;13.30;7.20;;;;;;;-5.95;100.00;140833.20;106721;1266;25363;-69
2024/02/26 03:24:36;;;;;;;13.80;7.90;;;;;;;-5.99;100.00;140825.78;106702;1266;25437;-70
2024/02/26 03:27:23;;;;;;;24.20;8.80;;;;;;;-5.99;100.00;140823.55;106742;1268;25401;-70
2024/02/26 03:30:10;;;;;;;19.70;8.50;;;;;;;-6.01;100.00;140819.83;106737;1268;25488;-69
2024/02/26 03:32:56;;;;;;;16.70;7.40;;;;;;;-6.02;100.00;140817.63;106687;1269;23928;-68
2024/02/26 03:35:42;;;;;;;23.70;9.10;;;;;;;-6.04;100.00;140812.19;106696;1267;24209;-66
2024/02/26 03:38:30;;;;;;;15.30;8.40;;;;;;;-6.03;100.00;140813.42;106422;1268;25463;-68
2024/02/26 03:41:16;;;;;;;18.40;8.40;;;;;;;-6.02;100.00;140817.16;106468;1263;25331;-70
2024/02/26 03:44:02;;;;;;;18.70;9.40;;;;;;;-6.01;100.00;140819.84;106587;1268;25491;-69
2024/02/26 03:46:49;;;;;;;16.40;8.40;;;;;;;-6.00;100.00;140821.08;106675;1267;25290;-68
2024/02/26 03:49:35;;;;;;;17.20;8.20;;;;;;;-6.01;100.00;140818.59;106738;1269;25414;-68
2024/02/26 03:52:21;;;;;;;16.60;9.30;;;;;;;-6.01;100.00;140818.59;106885;1266;25357;-68
2024/02/26 03:55:07;;;;;;;17.00;8.30;;;;;;;-6.04;100.00;140812.92;106902;1268;23263;-70
2024/02/26 03:57:53;;;;;;;20.40;9.50;;;;;;;-6.04;100.00;140810.95;106873;1262;22527;-69
2024/02/26 04:00:42;;;;;;;22.90;10.30;;;;;;;-6.04;100.00;140811.94;106907;1267;25491;-67
2024/02/26 04:03:29;;;;;;;19.80;10.00;;;;;;;-6.05;100.00;140809.22;106758;1266;25427;-69
2024/02/26 04:06:14;;;;;;;19.70;9.40;;;;;;;-6.07;100.00;140805.27;106770;1262;24461;-70
2024/02/26 04:09:03;;;;;;;18.30;9.70;;;;;;;-6.06;100.00;140806.00;106959;1264;25496;-69
2024/02/26 04:11:49;;;;;;;18.10;9.30;;;;;;;-6.07;100.00;140805.02;106742;1267;25488;-67
2024/02/26 04:14:35;;;;;;;17.30;9.00;;;;;;;-6.06;100.00;140806.50;106849;1262;25357;-71
2024/02/26 04:17:21;;;;;;;19.20;8.90;;;;;;;-6.06;100.00;140807.22;106833;1266;24266;-69
2024/02/26 04:20:07;;;;;;;14.20;8.50;;;;;;;-6.07;100.00;140804.03;106776;1267;25414;-69
2024/02/26 04:22:53;;;;;;;23.00;8.50;;;;;;;-6.08;100.00;140801.31;106679;1265;25434;-70
2024/02/26 04:25:39;;;;;;;18.20;8.80;;;;;;;-6.09;100.00;140798.34;106780;1265;25393;-66
2024/02/26 04:28:28;;;;;;;16.40;8.90;;;;;;;-6.11;100.00;140796.13;106839;1267;25366;-69
2024/02/26 04:31:15;;;;;;;18.50;8.30;;;;;;;-6.11;100.00;140794.88;106803;1265;25944;-70
2024/02/26 04:34:01;;;;;;;17.60;8.70;;;;;;;-6.14;100.00;140788.20;106905;1272;25504;-67
2024/02/26 04:36:47;;;;;;;18.60;9.30;;;;;;;-6.16;100.00;140783.50;106744;1267;25412;-70
2024/02/26 04:39:33;;;;;;;19.20;9.50;;;;;;;-6.14;100.00;140787.72;106735;1268;24219;-70
2024/02/26 04:42:19;;;;;;;20.50;9.40;;;;;;;-6.13;100.00;140791.66;107006;1266;23224;-69
2024/02/26 04:45:07;;;;;;;20.40;9.60;;;;;;;-6.11;100.00;140794.13;107075;1266;24390;-69
2024/02/26 04:47:52;;;;;;;20.10;9.70;;;;;;;-6.13;100.00;140790.42;107303;1262;25349;-69
2024/02/26 04:50:38;;;;;;;28.30;10.20;;;;;;;-6.15;100.00;140784.75;106839;1257;25342;-70
2024/02/26 04:53:24;;;;;;;19.20;10.70;;;;;;;-6.17;100.00;140780.53;107473;1262;22531;-68
2024/02/26 04:56:10;;;;;;;27.70;11.60;;;;;;;-6.17;100.00;140780.06;107026;1262;25341;-69
2024/02/26 04:58:55;;;;;;;22.90;10.60;;;;;;;-6.19;100.00;140775.34;107376;1262;22533;-69
2024/02/26 05:01:41;;;;;;;31.80;11.60;;;;;;;-6.22;100.00;140768.42;107190;1262;25443;-69
2024/02/26 05:04:27;;;;;;;23.50;10.90;;;;;;;-6.24;100.00;140763.98;107396;1262;25339;-70
2024/02/26 05:07:12;;;;;;;21.00;10.20;;;;;;;-6.23;100.00;140764.47;107289;1262;25491;-68
2024/02/26 05:09:59;;;;;;;22.20;10.70;;;;;;;-6.27;100.00;140756.08;107112;1263;25421;-68
2024/02/26 05:12:45;;;;;;;18.90;9.20;;;;;;;-6.29;100.00;140751.63;107037;1266;25401;-67
2024/02/26 05:15:30;;;;;;;23.60;9.30;;;;;;;-6.32;100.00;140743.97;107007;1262;25350;-69
2024/02/26 05:18:16;;;;;;;27.80;9.90;;;;;;;-6.36;100.00;140735.81;107130;1263;25342;-69
2024/02/26 05:21:03;;;;;;;19.50;10.00;;;;;;;-6.38;100.00;140730.13;106926;1265;23552;-68
2024/02/26 05:23:49;;;;;;;34.10;11.30;;;;;;;-6.40;100.00;140724.45;107084;1262;25363;-68
2024/02/26 05:26:34;;;;;;;28.70;12.20;;;;;;;-6.40;100.00;140725.45;106995;1262;22641;-67
2024/02/26 05:29:19;;;;;;;23.20;11.50;;;;;;;-6.39;100.00;140728.66;107088;1266;25328;-70
2024/02/26 05:32:06;;;;;;;21.40;11.00;;;;;;;-6.39;100.00;140728.39;107054;1266;23426;-70
2024/02/26 05:34:52;;;;;;;26.10;11.90;;;;;;;-6.37;100.00;140733.08;107186;1265;25374;-70
2024/02/26 05:37:37;;;;;;;28.50;11.20;;;;;;;-6.37;100.00;140733.34;107341;1263;25453;-68
2024/02/26 05:40:23;;;;;;;21.00;11.10;;;;;;;-6.40;100.00;140726.41;106928;1263;27034;-70
2024/02/26 05:43:08;;;;;;;23.40;11.20;;;;;;;-6.40;100.00;140726.17;107161;1261;25379;-68
2024/02/26 05:45:54;;;;;;;25.70;11.20;;;;;;;-6.38;100.00;140730.88;106911;1266;22526;-70
2024/02/26 05:48:39;;;;;;;23.20;11.40;;;;;;;-6.38;100.00;140730.64;107073;1262;25422;-68
2024/02/26 05:51:25;;;;;;;25.20;11.40;;;;;;;-6.35;100.00;140736.80;106968;1266;22528;-69
2024/02/26 05:54:11;;;;;;;18.30;10.10;;;;;;;-6.29;100.00;140751.13;107003;1268;25341;-70
2024/02/26 05:56:58;;;;;;;22.30;10.90;;;;;;;-6.23;100.00;140765.22;106962;1263;24387;-68
2024/02/26 05:59:43;;;;;;;24.20;11.40;;;;;;;-6.21;100.00;140771.41;107261;1263;25369;-70
2024/02/26 06:02:32;;;;;;;25.60;10.30;;;;;;;-6.21;100.00;140771.41;107196;1268;25415;-70
2024/02/26 06:05:17;;;;;;;22.50;12.40;;;;;;;-6.21;100.00;140771.41;107555;1266;25332;-68
2024/02/26 06:08:05;;;;;;;22.90;11.00;;;;;;;-6.20;100.00;140773.88;107367;1266;23779;-68
2024/02/26 06:10:51;;;;;;;22.00;11.10;;;;;;;-6.21;100.00;140769.91;107600;1266;25312;-68
2024/02/26 06:13:37;;;;;;;23.30;11.30;;;;;;;-6.21;100.00;140770.16;107365;1263;23295;-70
2024/02/26 06:16:23;;;;;;;27.30;11.10;;;;;;;-6.22;100.00;140769.67;107437;1262;22523;-69
2024/02/26 06:19:09;;;;;;;25.50;11.80;;;;;;;-6.17;100.00;140779.55;107544;1263;25449;-69
2024/02/26 06:21:58;;;;;;;23.00;12.30;;;;;;;-6.13;100.00;140789.67;107728;1266;25418;-69
2024/02/26 06:24:44;;;;;;;27.60;13.60;;;;;;;-6.11;100.00;140795.63;107228;1254;25417;-69
2024/02/26 06:27:30;;;;;;;23.20;11.30;;;;;;;-6.04;100.00;140811.44;107203;1266;22533;-68
2024/02/26 06:30:15;;;;;;;24.30;10.90;;;;;;;-6.05;100.00;140808.47;107045;1265;22516;-71
2024/02/26 06:33:01;;;;;;;24.40;8.70;;;;;;;-6.07;100.00;140805.75;107077;1259;22522;-68
2024/02/26 06:35:47;;;;;;;26.30;11.60;;;;;;;-6.09;100.00;140799.81;107441;1263;25369;-69
2024/02/26 06:38:32;;;;;;;26.60;12.20;;;;;;;-6.07;100.00;140803.78;107307;1256;25539;-69
2024/02/26 06:41:18;;;;;;;28.20;12.60;;;;;;;-5.98;100.00;140826.02;107344;1263;22531;-69
2024/02/26 06:44:04;;;;;;;21.80;10.90;;;;;;;-5.88;100.00;140851.20;107515;1253;23564;-69
2024/02/26 06:46:50;;;;;;;28.90;13.10;;;;;;;-5.84;100.00;140858.61;106996;1262;25387;-70
2024/02/26 06:49:35;;;;;;;28.10;11.40;;;;;;;-5.77;100.00;140876.17;107262;1263;23068;-70
2024/02/26 06:52:21;;;;;;;23.70;11.80;;;;;;;-5.59;100.00;140921.92;107902;1277;22876;-69
2024/02/26 06:55:08;;;;;;;20.30;10.70;;;;;;;-5.39;100.00;140967.91;107695;1264;22632;-68
2024/02/26 06:57:53;;;;;;;26.10;13.00;;;;;;;-4.48;100.00;141188.66;107248;1266;22531;-68
2024/02/26 07:00:39;;;;;;;25.50;11.80;;;;;;;-3.37;100.00;141456.66;107499;1259;25427;-68
2024/02/26 07:03:26;;;;;;;23.50;11.70;;;;;;;-2.46;100.00;141678.80;107267;1272;25548;-68
2024/02/26 07:06:13;;;;;;;20.70;11.50;;;;;;;-2.27;100.00;141722.95;107672;1268;25412;-70
2024/02/26 07:08:59;;;;;;;23.20;10.60;;;;;;;-2.16;100.00;141750.98;107222;1259;22523;-71
2024/02/26 07:11:45;;;;;;;22.50;10.80;;;;;;;-1.92;100.00;141808.55;107179;1263;25370;-70
2024/02/26 07:14:32;;;;;;;20.10;10.40;;;;;;;-1.58;100.00;141891.20;106927;1262;25341;-70
2024/02/26 07:17:18;;;;;;;19.00;10.70;;;;;;;-1.47;100.00;141918.00;106987;1263;25383;-72
2024/02/26 07:20:06;;;;;;;27.00;11.50;;;;;;;-0.67;100.00;142112.22;107722;1262;23261;-68
2024/02/26 07:22:56;;;;;;;22.50;12.10;;;;;;;-0.74;77.12;142094.81;106942;1277;24228;-69
2024/02/26 07:25:44;;;;;;;19.50;9.90;;;;;;;-0.60;75.94;142128.59;107314;1259;23128;-70
2024/02/26 07:28:33;;;;;;;20.90;11.20;;;;;;;-0.30;74.59;142201.42;106834;1266;25344;-70
2024/02/26 07:31:19;;;;;;;22.40;10.70;;;;;;;0.24;72.07;142334.16;107038;1262;22543;-69
2024/02/26 07:34:05;;;;;;;20.70;10.60;;;;;;;0.94;69.28;142502.53;106911;1263;23564;-71
2024/02/26 07:36:51;;;;;;;21.20;10.40;;;;;;;0.78;68.43;142464.00;106988;1259;25341;-71
2024/02/26 07:39:37;;;;;;;17.00;9.70;;;;;;;-0.50;71.24;142153.72;107051;1277;25379;-71
2024/02/26 07:42:23;;;;;;;22.90;10.50;;;;;;;-1.57;75.76;141894.45;107227;1276;22514;-70
2024/02/26 07:45:09;;;;;;;22.70;9.50;;;;;;;-1.96;78.37;141798.86;107338;1264;27925;-72
2024/02/26 07:47:55;;;;;;;19.50;10.00;;;;;;;-2.28;79.81;141722.22;107005;1266;25499;-69
2024/02/26 07:50:41;;;;;;;17.60;9.10;;;;;;;-2.62;81.92;141640.59;106903;1259;25507;-69
2024/02/26 07:53:28;;;;;;;20.10;10.50;;;;;;;-2.91;84.15;141569.67;107027;1263;25437;-70
2024/02/26 07:56:13;;;;;;;20.60;10.70;;;;;;;-3.01;85.15;141543.64;107448;1262;25363;-68
2024/02/26 07:58:59;;;;;;;25.40;13.00;;;;;;;-3.26;86.53;141483.41;107606;1263;24265;-71
2024/02/26 08:01:49;;;;;;;21.60;11.70;;;;;;;-3.52;88.66;141420.47;107960;1261;25486;-70
2024/02/26 08:04:41;;;;;;;22.50;11.80;;;;;;;-3.76;90.87;141363.00;107329;1260;25389;-70
2024/02/26 08:07:28;;;;;;;29.20;14.60;;;;;;;-3.80;92.33;141353.84;107556;1269;22527;-69
2024/02/26 08:10:14;;;;;;;32.30;13.70;;;;;;;-3.75;92.55;141365.45;107184;1272;25360;-69
2024/02/26 08:13:05;;;;;;;24.50;10.70;;;;;;;-3.78;92.39;141358.28;107310;1263;25338;-70
2024/02/26 08:15:50;;;;;;;24.30;11.70;;;;;;;-3.89;92.85;141332.53;107185;1262;25388;-69
2024/02/26 08:18:36;;;;;;;22.50;11.90;;;;;;;-3.96;93.71;141314.94;107267;1259;23264;-71
2024/02/26 08:21:22;;;;;;;19.10;11.00;;;;;;;-3.94;93.41;141318.89;107143;1262;25421;-70
2024/02/26 08:24:08;;;;;;;20.30;10.40;;;;;;;-3.95;93.56;141317.67;107514;1262;23376;-71
2024/02/26 08:26:54;;;;;;;20.10;11.10;;;;;;;-3.89;93.26;141331.28;107712;1266;22554;-69
2024/02/26 08:29:40;;;;;;;20.50;10.80;;;;;;;-3.90;92.55;141328.31;107191;1263;25478;-67
2024/02/26 08:32:26;;;;;;;23.40;12.00;;;;;;;-3.79;92.97;141356.53;107514;1277;22582;-71
2024/02/26 08:35:11;;;;;;;24.70;13.30;;;;;;;-3.64;92.57;141391.72;107406;1259;25332;-70
2024/02/26 08:37:57;;;;;;;24.30;12.50;;;;;;;-3.58;91.90;141406.34;107210;1262;25347;-70
2024/02/26 08:40:43;;;;;;;31.30;12.50;;;;;;;-3.64;91.81;141391.72;107263;1259;25370;-70
2024/02/26 08:43:29;;;;;;;31.30;14.50;;;;;;;-3.65;91.96;141388.25;107364;1259;22663;-67
2024/02/26 08:46:14;;;;;;;26.60;13.30;;;;;;;-3.63;92.22;141394.95;107368;1266;25370;-68
2024/02/26 08:49:00;;;;;;;24.90;13.30;;;;;;;-3.50;91.94;141427.14;107303;1263;25422;-67
2024/02/26 08:51:46;;;;;;;25.40;13.20;;;;;;;-3.43;91.18;141442.53;107068;1262;25466;-73
2024/02/26 08:54:32;;;;;;;31.30;13.00;;;;;;;-3.49;90.95;141428.17;107147;1257;25360;-68
2024/02/26 08:57:18;;;;;;;28.10;13.20;;;;;;;-3.57;91.54;141408.80;107443;1262;25412;-70
2024/02/26 09:00:05;;;;;;;24.40;14.70;;;;;;;-3.66;91.67;141388.25;107123;1259;23295;-68
2024/02/26 09:02:51;;;;;;;27.60;14.20;;;;;;;-3.62;92.69;141396.66;106771;1259;25368;-68
2024/02/26 09:05:37;;;;;;;36.00;16.20;;;;;;;-3.64;92.56;141392.72;107412;1259;23755;-68
2024/02/26 09:08:23;;;;;;;29.70;15.40;;;;;;;-3.74;93.09;141369.42;107055;1259;25557;-65
2024/02/26 09:11:10;;;;;;;27.40;13.00;;;;;;;-3.81;93.76;141351.83;107050;1259;23339;-71
2024/02/26 09:13:56;;;;;;;25.80;13.90;;;;;;;-3.79;94.25;141355.81;107188;1259;22608;-69
2024/02/26 09:16:41;;;;;;;31.40;14.90;;;;;;;-3.89;94.58;141331.53;107420;1259;25417;-68
2024/02/26 09:19:27;;;;;;;27.20;14.70;;;;;;;-3.95;95.66;141316.66;107353;1266;25230;-67
2024/02/26 09:22:13;;;;;;;24.00;13.30;;;;;;;-3.97;95.77;141311.72;106864;1263;25382;-66
2024/02/26 09:25:05;;;;;;;31.40;13.60;;;;;;;-4.04;96.22;141295.34;107476;1259;25518;-68
2024/02/26 09:27:51;;;;;;;31.20;14.80;;;;;;;-4.11;96.95;141279.53;106969;1259;22551;-71
2024/02/26 09:30:38;;;;;;;28.80;13.90;;;;;;;-4.17;97.83;141265.91;106993;1266;23217;-70
2024/02/26 09:33:24;;;;;;;31.00;13.10;;;;;;;-4.18;98.84;141262.67;106968;1258;22683;-72
2024/02/26 09:36:10;;;;;;;25.80;12.60;;;;;;;-4.16;98.92;141266.66;107329;1263;25239;-70
2024/02/26 09:38:56;;;;;;;29.90;12.90;;;;;;;-4.22;98.78;141253.28;107374;1259;222439;-69
2024/02/26 09:41:48;;;;;;;23.00;12.90;;;;;;;-4.28;99.37;141237.92;107440;1262;22527;-76
2024/02/26 09:44:39;;;;;;;26.70;14.40;;;;;;;-4.37;100.00;141215.38;107026;1270;23199;-75
2024/02/26 09:47:28;;;;;;;28.20;13.40;;;;;;;-4.36;100.00;141219.09;107046;1263;23867;-70
2024/02/26 09:50:17;;;;;;;25.60;13.60;;;;;;;-4.32;100.00;141227.28;106966;1262;25360;-72
2024/02/26 09:53:05;;;;;;;29.10;13.90;;;;;;;-4.25;100.00;141245.59;107589;1259;25324;-70
2024/02/26 09:55:51;;;;;;;29.00;12.90;;;;;;;-4.20;100.00;141257.72;107031;1258;25479;-69
2024/02/26 09:58:39;;;;;;;26.70;13.70;;;;;;;-4.16;100.00;141266.41;107065;1262;25369;-72
2024/02/26 10:01:25;;;;;;;29.40;14.10;;;;;;;-4.08;100.00;141286.45;107278;1254;22568;-71
2024/02/26 10:04:12;;;;;;;27.90;13.40;;;;;;;-4.03;99.70;141298.34;107313;1261;25382;-68
2024/02/26 10:06:59;;;;;;;27.00;13.00;;;;;;;-4.05;99.86;141292.41;107238;1258;24240;-70
2024/02/26 10:09:45;;;;;;;24.30;13.00;;;;;;;-3.95;99.88;141316.91;107196;1259;25806;-70
2024/02/26 10:12:32;;;;;;;26.40;12.20;;;;;;;-3.88;98.98;141333.75;107062;1260;25421;-70
2024/02/26 10:15:18;;;;;;;31.10;14.00;;;;;;;-3.85;98.94;141341.92;107518;1263;23000;-70
2024/02/26 10:18:05;;;;;;;32.60;12.20;;;;;;;-3.72;98.08;141372.39;107190;1262;23225;-70
2024/02/26 10:21:03;;;;;;;23.80;12.20;;;;;;;-3.59;97.13;141405.61;106931;1262;25421;-70
2024/02/26 10:23:52;;;;;;;24.60;12.50;;;;;;;-3.45;96.50;141438.31;107023;1262;25356;-71
2024/02/26 10:26:46;;;;;;;27.60;12.50;;;;;;;-3.30;95.40;141474.75;106971;1259;25418;-71
2024/02/26 10:29:32;;;;;;;28.10;13.00;;;;;;;-3.19;94.53;141500.03;106931;1257;25338;-68
2024/02/26 10:32:17;;;;;;;24.90;13.00;;;;;;;-3.16;94.32;141508.95;107308;1259;25481;-71
2024/02/26 10:35:08;;;;;;;25.50;11.80;;;;;;;-3.14;93.38;141512.16;106943;1266;25341;-71
2024/02/26 10:37:54;;;;;;;28.40;12.00;;;;;;;-3.15;93.30;141510.69;106750;1259;22530;-72
2024/02/26 10:40:40;;;;;;;20.60;11.70;;;;;;;-3.16;93.10;141507.95;106827;1260;24104;-71
2024/02/26 10:43:27;;;;;;;29.30;12.90;;;;;;;-3.20;92.84;141497.55;106966;1256;22606;-71
2024/02/26 10:46:14;;;;;;;26.20;12.10;;;;;;;-3.15;93.22;141511.67;107268;1259;22541;-70
2024/02/26 10:49:00;;;;;;;19.00;11.00;;;;;;;-3.05;92.98;141534.47;107223;1263;26182;-72
2024/02/26 10:51:54;;;;;;;35.40;13.70;;;;;;;-2.92;92.03;141566.22;107462;1262;24262;-72
2024/02/26 10:54:44;;;;;;;28.30;12.30;;;;;;;-2.77;90.73;141603.63;106968;1259;22605;-70
2024/02/26 10:57:40;;;;;;;22.40;12.90;;;;;;;-2.51;90.01;141665.16;107205;1266;25341;-70
2024/02/26 11:00:29;;;;;;;31.80;12.40;;;;;;;-2.17;87.96;141747.28;107260;1266;24250;-73
2024/02/26 11:03:17;;;;;;;29.60;13.80;;;;;;;-2.08;85.83;141771.83;107309;1263;25443;-71
2024/02/26 11:06:03;;;;;;;19.50;11.00;;;;;;;-2.06;85.86;141776.05;107003;1258;25449;-69
2024/02/26 11:08:50;;;;;;;27.70;12.70;;;;;;;-2.11;84.45;141763.63;106987;1263;25440;-71
2024/02/26 11:11:37;;;;;;;28.80;12.20;;;;;;;-2.20;84.60;141742.55;106999;1259;25532;-70
2024/02/26 11:14:26;;;;;;;26.00;12.70;;;;;;;-2.20;85.15;141742.30;106860;1264;25504;-70
2024/02/26 11:17:13;;;;;;;24.10;12.50;;;;;;;-2.14;85.08;141755.70;106911;1263;26504;-73
2024/02/26 11:19:59;;;;;;;26.30;12.40;;;;;;;-2.15;83.92;141753.70;107524;1266;24405;-70
2024/02/26 11:22:46;;;;;;;23.30;11.60;;;;;;;-2.12;84.02;141759.41;107211;1262;25369;-69
2024/02/26 11:25:31;;;;;;;23.80;12.10;;;;;;;-2.02;83.80;141785.97;107153;1259;22528;-71
2024/02/26 11:28:21;;;;;;;23.20;11.60;;;;;;;-1.91;82.93;141811.78;107061;1263;25360;-69
2024/02/26 11:31:08;;;;;;;23.40;11.10;;;;;;;-1.97;82.72;141796.88;107042;1260;23355;-72
2024/02/26 11:33:56;;;;;;;22.60;10.10;;;;;;;-2.01;83.03;141788.92;106973;1259;22524;-70
2024/02/26 11:36:42;;;;;;;23.70;11.10;;;;;;;-2.09;83.13;141766.84;107049;1259;25341;-74
2024/02/26 11:39:30;;;;;;;20.70;11.00;;;;;;;-2.14;83.56;141754.70;107008;1266;22601;-71
2024/02/26 11:42:16;;;;;;;24.40;10.50;;;;;;;-2.16;83.93;141751.00;106969;1259;25341;-72
2024/02/26 11:45:03;;;;;;;21.60;11.30;;;;;;;-2.20;84.29;141741.55;107166;1259;24186;-69
2024/02/26 11:47:56;;;;;;;26.70;10.70;;;;;;;-2.23;84.33;141734.61;107142;1259;25316;-69
2024/02/26 11:50:43;;;;;;;26.20;12.00;;;;;;;-2.22;84.50;141737.84;106993;1262;25331;-69
2024/02/26 11:53:34;;;;;;;22.70;12.20;;;;;;;-2.10;84.13;141764.64;107011;1259;25485;-69
2024/02/26 11:56:26;;;;;;;24.40;11.10;;;;;;;-1.96;83.55;141798.88;107123;1259;25421;-68
2024/02/26 11:59:38;;;;;;;22.80;10.10;;;;;;;-1.73;82.72;141854.20;107063;1266;25462;-69
2024/02/26 12:03:02;;;;;;;20.20;10.80;;;;;;;-1.54;81.79;141900.38;107025;1269;25526;-69
2024/02/26 12:05:48;;;;;;;25.60;12.20;;;;;;;-1.39;80.92;141936.63;107336;1259;25348;-69
2024/02/26 12:08:35;;;;;;;27.50;12.30;;;;;;;-1.42;80.26;141928.95;107254;1260;25580;-65
2024/02/26 12:11:20;;;;;;;19.40;10.20;;;;;;;-1.50;80.29;141911.80;106927;1264;25370;-68
2024/02/26 12:14:08;;;;;;;19.50;9.60;;;;;;;-1.55;80.72;141899.88;106986;1260;23163;-68
2024/02/26 12:16:58;;;;;;;23.60;9.60;;;;;;;-1.56;80.21;141898.16;107207;1256;22523;-69
2024/02/26 12:19:45;;;;;;;23.70;10.30;;;;;;;-1.62;79.89;141882.73;107341;1277;24179;-70
2024/02/26 12:22:31;;;;;;;27.80;13.00;;;;;;;-1.70;80.85;141862.64;106970;1277;25385;-68
2024/02/26 12:25:23;;;;;;;22.90;11.60;;;;;;;-1.74;81.59;141852.00;107391;1264;22993;-67
2024/02/26 12:28:09;;;;;;;22.00;11.00;;;;;;;-1.70;81.76;141863.41;106907;1259;22547;-69